createdAt,value
2022-09-07T00:00:44.628Z,22.59
2022-09-07T00:03:11.703Z,22.57
2022-09-07T00:05:43.426Z,22.55
2022-09-07T00:08:10.807Z,22.53
2022-09-07T00:10:38.054Z,22.50
2022-09-07T00:13:06.317Z,22.49
2022-09-07T00:15:34.003Z,22.49
2022-09-07T00:18:00.882Z,22.48
2022-09-07T00:20:27.813Z,22.44
2022-09-07T00:22:54.682Z,22.41
2022-09-07T00:25:21.570Z,22.39
2022-09-07T00:27:48.455Z,22.36
2022-09-07T00:30:15.397Z,22.34
2022-09-07T00:32:42.437Z,22.30
2022-09-07T00:35:09.619Z,22.28
2022-09-07T00:37:36.499Z,22.26
2022-09-07T00:40:04.208Z,22.22
2022-09-07T00:42:31.280Z,22.21
2022-09-07T00:45:18.492Z,22.19
2022-09-07T00:48:08.925Z,22.15
2022-09-07T00:50:46.199Z,22.12
2022-09-07T00:53:22.059Z,22.11
2022-09-07T00:55:50.898Z,22.10
2022-09-07T00:58:19.480Z,22.07
2022-09-07T01:00:47.935Z,22.04
2022-09-07T01:03:18.962Z,21.99
2022-09-07T01:05:51.029Z,21.96
2022-09-07T01:08:18.234Z,21.93
2022-09-07T01:10:46.772Z,21.89
2022-09-07T01:13:15.082Z,21.87
2022-09-07T01:16:10.801Z,21.85
2022-09-07T01:19:02.186Z,21.81
2022-09-07T01:21:59.992Z,21.78
2022-09-07T01:25:09.237Z,21.74
2022-09-07T01:27:44.057Z,21.74
2022-09-07T01:30:23.137Z,21.74
2022-09-07T01:33:27.714Z,21.74
2022-09-07T01:36:20.166Z,21.72
2022-09-07T01:38:52.438Z,21.72
2022-09-07T01:41:27.788Z,21.70
2022-09-07T01:44:00.450Z,21.71
2022-09-07T01:46:35.288Z,21.70
2022-09-07T01:49:14.418Z,21.70
2022-09-07T01:51:45.223Z,21.70
2022-09-07T01:54:21.385Z,21.73
2022-09-07T01:56:50.130Z,21.75
2022-09-07T01:59:30.011Z,21.75
2022-09-07T02:02:04.081Z,21.75
2022-09-07T02:04:35.799Z,21.73
2022-09-07T02:07:20.295Z,21.74
2022-09-07T02:10:01.843Z,21.72
2022-09-07T02:12:41.060Z,21.73
2022-09-07T02:15:22.764Z,21.71
2022-09-07T02:17:52.362Z,21.74
2022-09-07T02:20:26.844Z,21.72
2022-09-07T02:22:58.137Z,21.60
2022-09-07T02:25:29.164Z,21.62
2022-09-07T02:28:07.652Z,21.35
2022-09-07T02:30:34.870Z,21.44
2022-09-07T02:33:01.842Z,21.61
2022-09-07T02:35:28.818Z,21.68
2022-09-07T02:37:56.359Z,21.66
2022-09-07T02:40:23.254Z,21.62
2022-09-07T02:42:50.512Z,21.61
2022-09-07T02:45:17.561Z,21.60
2022-09-07T02:48:11.424Z,21.59
2022-09-07T02:50:58.624Z,21.53
2022-09-07T02:53:52.395Z,21.46
2022-09-07T02:56:43.867Z,21.36
2022-09-07T02:59:32.376Z,21.34
2022-09-07T03:02:06.945Z,21.33
2022-09-07T03:04:42.878Z,21.31
2022-09-07T03:07:23.059Z,21.26
2022-09-07T03:09:53.239Z,21.18
2022-09-07T03:12:20.201Z,21.00
2022-09-07T03:14:47.078Z,20.79
2022-09-07T03:17:14.225Z,20.66
2022-09-07T03:19:41.188Z,20.54
2022-09-07T03:22:08.239Z,20.45
2022-09-07T03:24:36.642Z,20.37
2022-09-07T03:27:03.734Z,20.31
2022-09-07T03:29:30.886Z,20.22
2022-09-07T03:31:57.766Z,20.16
2022-09-07T03:34:24.767Z,20.08
2022-09-07T03:36:51.635Z,20.03
2022-09-07T03:39:20.899Z,19.97
2022-09-07T03:41:48.004Z,19.92
2022-09-07T03:44:14.911Z,19.86
2022-09-07T03:46:41.874Z,19.85
2022-09-07T03:49:08.799Z,19.76
2022-09-07T03:51:35.679Z,19.70
2022-09-07T03:54:02.656Z,19.63
2022-09-07T03:56:29.557Z,19.59
2022-09-07T03:58:56.518Z,19.54
2022-09-07T04:01:25.058Z,19.52
2022-09-07T04:03:52.690Z,19.47
2022-09-07T04:06:19.952Z,19.42
2022-09-07T04:08:46.908Z,19.39
2022-09-07T04:11:16.875Z,19.36
2022-09-07T04:13:44.411Z,19.35
2022-09-07T04:16:14.009Z,19.33
2022-09-07T04:18:41.691Z,19.33
2022-09-07T04:21:08.913Z,19.33
2022-09-07T04:23:38.800Z,19.30
2022-09-07T04:26:05.839Z,19.30
2022-09-07T04:28:32.744Z,19.29
2022-09-07T04:31:01.965Z,19.27
2022-09-07T04:33:32.389Z,19.27
2022-09-07T04:36:00.961Z,19.27
2022-09-07T04:38:28.749Z,19.25
2022-09-07T04:41:02.966Z,19.25
2022-09-07T04:43:29.997Z,19.25
2022-09-07T04:45:57.129Z,19.23
2022-09-07T04:48:24.167Z,19.24
2022-09-07T04:50:52.061Z,19.25
2022-09-07T04:53:19.731Z,19.27
2022-09-07T04:55:46.649Z,19.29
2022-09-07T04:58:13.596Z,19.29
2022-09-07T05:00:40.555Z,19.36
2022-09-07T05:03:07.467Z,19.36
2022-09-07T05:05:37.199Z,19.32
2022-09-07T05:08:04.121Z,19.25
2022-09-07T05:10:31.014Z,19.24
2022-09-07T05:12:58.011Z,19.21
2022-09-07T05:15:24.948Z,19.21
2022-09-07T05:17:51.837Z,19.20
2022-09-07T05:20:20.433Z,19.20
2022-09-07T05:22:47.746Z,19.19
2022-09-07T05:25:14.875Z,19.20
2022-09-07T05:27:42.325Z,19.21
2022-09-07T05:32:56.789Z,19.18
2022-09-07T05:36:01.895Z,19.17
2022-09-07T05:38:30.194Z,19.17
2022-09-07T05:40:59.361Z,19.15
2022-09-07T05:43:26.365Z,19.16
2022-09-07T05:45:56.446Z,19.16
2022-09-07T05:48:23.515Z,19.18
2022-09-07T05:50:52.731Z,19.18
2022-09-07T05:53:21.009Z,19.19
2022-09-07T05:55:50.314Z,19.19
2022-09-07T05:58:18.503Z,19.21
2022-09-07T06:00:46.004Z,19.22
2022-09-07T06:03:13.082Z,19.23
2022-09-07T06:05:40.117Z,19.25
2022-09-07T06:08:07.097Z,19.26
2022-09-07T06:10:44.711Z,19.27
2022-09-07T06:13:11.991Z,19.32
2022-09-07T06:15:39.043Z,19.37
2022-09-07T06:18:06.351Z,19.41
2022-09-07T06:20:33.300Z,19.44
2022-09-07T06:23:00.263Z,19.50
2022-09-07T06:25:27.280Z,19.53
2022-09-07T06:27:54.251Z,19.58
2022-09-07T06:30:22.240Z,19.58
2022-09-07T06:32:49.209Z,19.64
2022-09-07T06:35:16.307Z,19.72
2022-09-07T06:37:43.670Z,19.79
2022-09-07T06:40:11.603Z,19.84
2022-09-07T06:42:39.149Z,19.94
2022-09-07T06:45:06.779Z,20.02
2022-09-07T06:47:33.752Z,20.11
2022-09-07T06:50:01.342Z,20.18
2022-09-07T06:52:29.025Z,20.25
2022-09-07T06:57:27.998Z,20.36
2022-09-07T06:59:55.098Z,20.41
2022-09-07T07:02:22.103Z,20.49
2022-09-07T07:04:50.155Z,20.56
2022-09-07T07:07:17.118Z,20.63
2022-09-07T07:09:44.082Z,20.71
2022-09-07T07:12:11.428Z,20.79
2022-09-07T07:14:44.049Z,20.83
2022-09-07T07:17:11.938Z,20.92
2022-09-07T07:19:38.930Z,21.03
2022-09-07T07:22:18.790Z,21.07
2022-09-07T07:24:52.895Z,21.18
2022-09-07T07:27:21.471Z,21.23
2022-09-07T07:29:48.520Z,21.31
2022-09-07T07:32:15.787Z,21.36
2022-09-07T07:34:42.715Z,21.39
2022-09-07T07:37:09.623Z,21.44
2022-09-07T07:42:24.155Z,21.62
2022-09-07T07:47:38.487Z,21.68
2022-09-07T07:55:43.623Z,21.90
2022-09-07T07:58:11.119Z,21.96
2022-09-07T08:00:53.784Z,21.96
2022-09-07T08:03:23.455Z,22.02
2022-09-07T08:05:51.027Z,22.10
2022-09-07T08:08:18.815Z,22.17
2022-09-07T08:10:47.193Z,22.30
2022-09-07T08:13:15.877Z,22.32
2022-09-07T08:15:46.133Z,22.39
2022-09-07T08:18:13.814Z,22.49
2022-09-07T08:20:41.719Z,22.52
2022-09-07T08:23:08.882Z,22.59
2022-09-07T08:25:36.203Z,22.66
2022-09-07T08:28:04.126Z,22.79
2022-09-07T08:30:31.332Z,22.91
2022-09-07T08:32:58.397Z,23.06
2022-09-07T08:35:25.373Z,23.18
2022-09-07T08:37:52.271Z,23.27
2022-09-07T08:40:20.510Z,23.32
2022-09-07T08:43:12.092Z,23.41
2022-09-07T08:45:48.575Z,23.48
2022-09-07T08:48:29.127Z,23.52
2022-09-07T08:51:12.958Z,23.61
2022-09-07T08:53:46.564Z,23.67
2022-09-07T08:56:31.540Z,23.75
2022-09-07T08:59:11.302Z,23.89
2022-09-07T09:01:42.830Z,23.99
2022-09-07T09:04:23.155Z,24.06
2022-09-07T09:07:13.635Z,24.16
2022-09-07T09:10:16.160Z,24.25
2022-09-07T09:13:04.426Z,24.33
2022-09-07T09:16:17.205Z,24.45
2022-09-07T09:19:06.232Z,24.57
2022-09-07T09:21:35.539Z,24.58
2022-09-07T09:24:19.321Z,24.72
2022-09-07T09:26:53.007Z,24.70
2022-09-07T09:29:22.311Z,24.77
2022-09-07T09:31:53.560Z,24.71
2022-09-07T09:34:25.480Z,24.81
2022-09-07T09:36:56.671Z,24.94
2022-09-07T09:39:38.163Z,25.04
2022-09-07T09:42:24.562Z,25.02
2022-09-07T09:44:52.026Z,25.10
2022-09-07T09:47:32.965Z,25.22
2022-09-07T09:50:06.914Z,25.31
2022-09-07T09:52:47.683Z,25.37
2022-09-07T09:55:35.492Z,25.45
2022-09-07T10:01:35.294Z,25.45
2022-09-07T10:04:24.770Z,25.53
2022-09-07T10:06:55.889Z,25.58
2022-09-07T10:09:29.745Z,25.62
2022-09-07T10:12:08.542Z,25.63
2022-09-07T10:14:47.360Z,25.63
2022-09-07T10:17:36.801Z,25.77
2022-09-07T10:20:15.856Z,25.90
2022-09-07T10:22:52.557Z,26.04
2022-09-07T10:25:34.738Z,26.14
2022-09-07T10:28:12.867Z,26.20
2022-09-07T10:31:24.375Z,26.28
2022-09-07T10:34:38.443Z,26.33
2022-09-07T10:37:09.386Z,26.36
2022-09-07T10:40:16.372Z,26.54
2022-09-07T10:49:19.805Z,26.70
2022-09-07T10:52:03.636Z,26.77
2022-09-07T10:55:15.976Z,26.88
2022-09-07T10:58:08.330Z,27.00
2022-09-07T11:01:13.347Z,27.12
2022-09-07T11:03:57.441Z,27.20
2022-09-07T11:06:48.931Z,27.31
2022-09-07T11:09:50.759Z,27.37
2022-09-07T11:12:31.811Z,27.49
2022-09-07T11:15:12.175Z,27.53
2022-09-07T11:17:55.157Z,27.65
2022-09-07T11:20:37.756Z,27.72
2022-09-07T11:23:22.580Z,27.80
2022-09-07T11:26:11.256Z,27.72
2022-09-07T11:29:28.735Z,27.71
2022-09-07T11:32:21.686Z,27.80
2022-09-07T11:35:03.726Z,27.76
2022-09-07T11:37:41.191Z,27.88
2022-09-07T11:40:23.605Z,27.94
2022-09-07T11:43:15.743Z,27.97
2022-09-07T11:46:04.756Z,28.10
2022-09-07T11:48:52.355Z,28.18
2022-09-07T11:51:26.635Z,28.16
2022-09-07T11:54:02.310Z,28.17
2022-09-07T11:56:45.641Z,28.12
2022-09-07T11:59:52.183Z,27.95
2022-09-07T12:03:07.591Z,28.06
2022-09-07T12:06:04.891Z,28.15
2022-09-07T12:08:48.666Z,28.19
2022-09-07T12:11:58.565Z,28.41
2022-09-07T12:15:10.167Z,28.58
2022-09-07T12:18:06.414Z,28.68
2022-09-07T12:20:54.618Z,28.82
2022-09-07T12:23:32.103Z,28.70
2022-09-07T12:26:34.432Z,28.85
2022-09-07T12:29:01.231Z,28.85
2022-09-07T12:31:59.353Z,29.01
2022-09-07T12:34:33.639Z,29.17
2022-09-07T12:37:26.657Z,29.35
2022-09-07T12:40:30.562Z,29.47
2022-09-07T12:43:15.611Z,29.53
2022-09-07T12:45:42.526Z,29.63
2022-09-07T12:48:44.909Z,29.56
2022-09-07T12:55:28.518Z,29.68
2022-09-07T12:58:40.867Z,29.85
2022-09-07T13:01:33.336Z,29.84
2022-09-07T13:04:42.339Z,29.77
2022-09-07T13:07:46.471Z,29.83
2022-09-07T13:10:36.687Z,29.80
2022-09-07T13:16:14.611Z,29.85
2022-09-07T13:18:47.464Z,29.81
2022-09-07T13:21:15.481Z,29.82
2022-09-07T13:27:25.878Z,29.91
2022-09-07T13:30:01.927Z,29.96
2022-09-07T13:35:24.898Z,29.85
2022-09-07T13:38:03.744Z,29.88
2022-09-07T13:40:39.218Z,30.01
2022-09-07T13:43:14.985Z,30.01
2022-09-07T13:45:56.081Z,30.01
2022-09-07T13:48:47.596Z,30.05
2022-09-07T13:51:48.720Z,30.03
2022-09-07T13:54:46.290Z,30.06
2022-09-07T13:57:32.223Z,29.95
2022-09-07T13:59:59.573Z,29.88
2022-09-07T14:02:35.435Z,29.91
2022-09-07T14:05:03.062Z,29.91
2022-09-07T14:07:33.619Z,30.03
2022-09-07T14:10:21.926Z,30.20
2022-09-07T14:12:53.343Z,30.29
2022-09-07T14:15:37.069Z,30.35
2022-09-07T14:18:22.893Z,30.43
2022-09-07T14:20:52.795Z,30.42
2022-09-07T14:23:31.404Z,30.37
2022-09-07T14:26:25.263Z,30.35
2022-09-07T14:28:55.869Z,30.21
2022-09-07T14:31:25.881Z,30.06
2022-09-07T14:33:59.350Z,30.00
2022-09-07T14:36:45.682Z,29.91
2022-09-07T14:39:17.424Z,29.75
2022-09-07T14:41:46.025Z,29.51
2022-09-07T14:44:38.714Z,29.49
2022-09-07T14:47:21.967Z,29.46
2022-09-07T14:49:52.902Z,29.47
2022-09-07T14:52:43.344Z,29.48
2022-09-07T14:55:32.444Z,29.47
2022-09-07T14:58:24.325Z,29.30
2022-09-07T15:04:21.774Z,29.02
2022-09-07T15:07:04.801Z,28.96
2022-09-07T15:09:38.395Z,28.94
2022-09-07T15:12:38.245Z,28.92
2022-09-07T15:15:33.991Z,28.86
2022-09-07T15:18:27.747Z,28.85
2022-09-07T15:20:57.216Z,28.84
2022-09-07T15:23:25.414Z,28.77
2022-09-07T15:25:54.108Z,28.75
2022-09-07T15:34:20.415Z,28.61
2022-09-07T15:36:53.437Z,28.60
2022-09-07T15:39:29.886Z,28.58
2022-09-07T15:42:00.422Z,28.58
2022-09-07T15:44:45.832Z,28.52
2022-09-07T15:50:00.937Z,28.37
2022-09-07T15:52:31.600Z,28.32
2022-09-07T15:54:59.843Z,28.20
2022-09-07T16:00:18.096Z,28.15
2022-09-07T16:03:05.835Z,28.15
2022-09-07T16:05:33.948Z,28.15
2022-09-07T16:10:53.890Z,28.11
2022-09-07T16:13:23.795Z,28.04
2022-09-07T16:15:51.018Z,27.96
2022-09-07T16:18:18.892Z,27.89
2022-09-07T16:20:47.337Z,27.85
2022-09-07T16:23:16.754Z,27.77
2022-09-07T16:25:57.190Z,27.70
2022-09-07T16:28:24.662Z,27.60
2022-09-07T16:30:51.715Z,27.54
2022-09-07T16:33:18.694Z,27.49
2022-09-07T16:35:59.486Z,27.36
2022-09-07T16:41:26.554Z,27.25
2022-09-07T16:43:54.743Z,27.17
2022-09-07T16:46:25.411Z,27.09
2022-09-07T16:48:53.455Z,27.01
2022-09-07T16:51:22.668Z,26.95
2022-09-07T16:53:52.900Z,26.87
2022-09-07T16:56:21.746Z,26.78
2022-09-07T16:58:52.044Z,26.69
2022-09-07T17:01:22.664Z,26.62
2022-09-07T17:03:50.351Z,26.55
2022-09-07T17:06:20.174Z,26.45
2022-09-07T17:08:47.587Z,26.35
2022-09-07T17:11:28.989Z,26.25
2022-09-07T17:13:57.935Z,26.14
2022-09-07T17:16:31.943Z,26.04
2022-09-07T17:21:53.595Z,25.87
2022-09-07T17:24:21.100Z,25.73
2022-09-07T17:26:48.447Z,25.63
2022-09-07T17:29:15.362Z,25.53
2022-09-07T17:34:30.483Z,25.23
2022-09-07T17:36:57.841Z,25.10
2022-09-07T17:39:24.840Z,24.94
2022-09-07T17:41:52.670Z,24.78
2022-09-07T17:44:21.565Z,24.62
2022-09-07T17:46:48.803Z,24.46
2022-09-07T17:49:16.686Z,24.34
2022-09-07T17:51:44.670Z,24.20
2022-09-07T17:54:15.518Z,24.08
2022-09-07T17:56:43.381Z,23.95
2022-09-07T18:01:58.193Z,23.70
2022-09-07T18:04:25.185Z,23.58
2022-09-07T18:06:54.072Z,23.50
2022-09-07T18:09:21.685Z,23.42
2022-09-07T18:11:49.895Z,23.37
2022-09-07T18:14:18.644Z,23.31
2022-09-07T18:16:48.825Z,23.24
2022-09-07T18:19:16.939Z,23.16
2022-09-07T18:21:45.285Z,23.09
2022-09-07T18:24:23.955Z,23.05
2022-09-07T18:26:53.709Z,22.96
2022-09-07T18:29:33.993Z,22.92
2022-09-07T18:32:08.029Z,22.91
2022-09-07T18:34:37.927Z,22.90
2022-09-07T18:37:05.956Z,22.90
2022-09-07T18:39:35.091Z,22.86
2022-09-07T18:42:02.293Z,22.81
2022-09-07T18:47:23.137Z,22.72
2022-09-07T18:49:51.483Z,22.66
2022-09-07T18:55:08.498Z,22.46
2022-09-07T18:57:36.509Z,22.36
2022-09-07T19:00:07.745Z,22.24
2022-09-07T19:02:35.767Z,22.13
2022-09-07T19:07:50.178Z,21.85
2022-09-07T19:10:17.709Z,21.74
2022-09-07T19:12:46.212Z,21.60
2022-09-07T19:15:13.991Z,21.41
2022-09-07T19:17:40.984Z,21.20
2022-09-07T19:20:09.040Z,21.00
2022-09-07T19:22:35.979Z,20.81
2022-09-07T19:25:03.502Z,20.65
2022-09-07T19:27:32.897Z,20.48
2022-09-07T19:29:59.903Z,20.38
2022-09-07T19:32:27.273Z,20.31
2022-09-07T19:34:55.332Z,20.22
2022-09-07T19:37:27.277Z,20.14
2022-09-07T19:39:57.422Z,20.10
2022-09-07T19:42:25.447Z,20.06
2022-09-07T19:44:54.029Z,20.01
2022-09-07T19:47:23.140Z,19.96
2022-09-07T19:49:50.069Z,19.92
2022-09-07T19:52:17.000Z,19.89
2022-09-07T19:54:43.947Z,19.84
2022-09-07T19:57:11.012Z,19.78
2022-09-07T19:59:37.918Z,19.72
2022-09-07T20:02:06.062Z,19.66
2022-09-07T20:04:33.083Z,19.62
2022-09-07T20:07:00.074Z,19.56
2022-09-07T20:09:27.107Z,19.51
2022-09-07T20:11:54.132Z,19.44
2022-09-07T20:14:21.077Z,19.38
2022-09-07T20:16:48.101Z,19.31
2022-09-07T20:19:15.278Z,19.24
2022-09-07T20:21:42.871Z,19.19
2022-09-07T20:24:12.331Z,19.15
2022-09-07T20:26:39.385Z,19.10
2022-09-07T20:31:54.299Z,19.03
2022-09-07T20:34:21.395Z,19.00
2022-09-07T20:36:52.526Z,18.98
2022-09-07T20:39:20.821Z,18.96
2022-09-07T20:41:48.287Z,18.94
2022-09-07T20:44:17.955Z,18.95
2022-09-07T20:46:47.187Z,18.96
2022-09-07T20:49:15.385Z,18.98
2022-09-07T20:51:46.397Z,18.99
2022-09-07T20:54:13.728Z,19.02
2022-09-07T20:56:40.982Z,19.03
2022-09-07T20:59:08.412Z,19.07
2022-09-07T21:01:35.602Z,19.10
2022-09-07T21:04:03.912Z,19.11
2022-09-07T21:06:31.943Z,19.13
2022-09-07T21:09:00.079Z,19.15
2022-09-07T21:11:31.280Z,19.16
2022-09-07T21:14:07.486Z,19.18
2022-09-07T21:16:36.058Z,19.16
2022-09-07T21:19:07.045Z,19.18
2022-09-07T21:21:38.976Z,19.21
2022-09-07T21:24:14.387Z,19.20
2022-09-07T21:26:41.439Z,19.24
2022-09-07T21:29:14.963Z,19.30
2022-09-07T21:31:41.994Z,19.33
2022-09-07T21:34:09.903Z,19.38
2022-09-07T21:36:37.014Z,19.41
2022-09-07T21:39:04.321Z,19.44
2022-09-07T21:41:31.264Z,19.48
2022-09-07T21:44:01.697Z,19.50
2022-09-07T21:46:31.467Z,19.49
2022-09-07T21:48:59.408Z,19.50
2022-09-07T21:51:27.543Z,19.49
2022-09-07T21:53:57.484Z,19.51
2022-09-07T21:56:25.412Z,19.52
2022-09-07T21:59:00.714Z,19.53
2022-09-07T22:01:29.509Z,19.54
2022-09-07T22:04:04.876Z,19.55
2022-09-07T22:06:33.039Z,19.55
2022-09-07T22:09:01.575Z,19.53
2022-09-07T22:11:30.138Z,19.55
2022-09-07T22:14:01.892Z,19.56
2022-09-07T22:16:30.061Z,19.57
2022-09-07T22:18:57.470Z,19.55
2022-09-07T22:21:27.603Z,19.55
2022-09-07T22:24:01.419Z,19.53
2022-09-07T22:26:33.144Z,19.51
2022-09-07T22:29:00.607Z,19.48
2022-09-07T22:31:31.643Z,19.45
2022-09-07T22:34:02.021Z,19.42
2022-09-07T22:36:32.916Z,19.38
2022-09-07T22:39:04.068Z,19.35
2022-09-07T22:41:34.468Z,19.33
2022-09-07T22:44:01.751Z,19.32
2022-09-07T22:46:31.086Z,19.29
2022-09-07T22:48:59.149Z,19.26
2022-09-07T22:51:27.452Z,19.22
2022-09-07T22:53:57.175Z,19.20
2022-09-07T22:56:31.105Z,19.19
2022-09-07T22:59:05.652Z,19.14
2022-09-07T23:01:33.302Z,19.13
2022-09-07T23:04:01.329Z,19.09
2022-09-07T23:06:34.516Z,19.09
2022-09-07T23:09:06.751Z,19.10
2022-09-07T23:11:33.901Z,19.09
2022-09-07T23:14:04.945Z,19.04
2022-09-07T23:16:31.948Z,19.04
2022-09-07T23:19:00.440Z,19.04
2022-09-07T23:21:28.452Z,19.03
2022-09-07T23:23:59.621Z,19.02
2022-09-07T23:26:30.133Z,19.02
2022-09-07T23:29:01.115Z,19.01
2022-09-07T23:31:30.122Z,19.04
2022-09-07T23:33:57.700Z,19.04
2022-09-07T23:36:25.404Z,19.08
2022-09-07T23:38:56.181Z,19.08
2022-09-07T23:41:24.879Z,19.08
2022-09-07T23:43:52.903Z,19.10
2022-09-07T23:46:20.684Z,19.08
2022-09-07T23:48:48.672Z,19.07
2022-09-07T23:51:21.295Z,19.05
2022-09-07T23:53:50.787Z,19.10
2022-09-07T23:56:17.909Z,19.15
2022-09-07T23:58:44.989Z,19.13
